sensor_id;sensor_type;location;lat;lon;timestamp;pressure;altitude;pressure_sealevel;temperature;humidity
44531;BME280;30240;47.418;0.700;2023-02-17T00:01:25;101615.39306640625;;;10.6;90.5
44531;BME280;30240;47.418;0.700;2023-02-17T00:03:50;101606.18896484375;;;10.58;90.79
44531;BME280;30240;47.418;0.700;2023-02-17T00:06:15;101618.24951171875;;;10.51;91.1
44531;BME280;30240;47.418;0.700;2023-02-17T00:08:39;101616.9921875;;;10.46;91.44
44531;BME280;30240;47.418;0.700;2023-02-17T00:11:04;101612.8662109375;;;10.47;91.54
44531;BME280;30240;47.418;0.700;2023-02-17T00:13:29;101612.8662109375;;;10.47;91.54
44531;BME280;30240;47.418;0.700;2023-02-17T00:15:54;101610.68725585938;;;10.47;91.72
44531;BME280;30240;47.418;0.700;2023-02-17T00:18:19;101616.81518554688;;;10.46;91.83
44531;BME280;30240;47.418;0.700;2023-02-17T00:20:44;101617.36450195312;;;10.43;92.05
44531;BME280;30240;47.418;0.700;2023-02-17T00:23:09;101619.72045898438;;;10.4;92.28
44531;BME280;30240;47.418;0.700;2023-02-17T00:25:33;101619.72045898438;;;10.4;92.28
44531;BME280;30240;47.418;0.700;2023-02-17T00:27:59;101622.84545898438;;;10.44;92.16
44531;BME280;30240;47.418;0.700;2023-02-17T00:30:23;101628.857421875;;;10.41;92.1
44531;BME280;30240;47.418;0.700;2023-02-17T00:32:49;101629.76684570312;;;10.39;92.0
44531;BME280;30240;47.418;0.700;2023-02-17T00:35:14;101624.658203125;;;10.34;92.07
44531;BME280;30240;47.418;0.700;2023-02-17T00:37:39;101624.658203125;;;10.34;92.07
44531;BME280;30240;47.418;0.700;2023-02-17T00:40:04;101623.47412109375;;;10.29;92.23
44531;BME280;30240;47.418;0.700;2023-02-17T00:42:28;101632.275390625;;;10.23;92.59
44531;BME280;30240;47.418;0.700;2023-02-17T00:44:53;101616.20483398438;;;10.15;93.13
44531;BME280;30240;47.418;0.700;2023-02-17T00:47:19;101619.775390625;;;10.15;93.59
44531;BME280;30240;47.418;0.700;2023-02-17T00:49:44;101619.775390625;;;10.15;93.59
44531;BME280;30240;47.418;0.700;2023-02-17T00:52:08;101623.54125976562;;;10.09;93.8
44531;BME280;30240;47.418;0.700;2023-02-17T00:54:33;101624.40795898438;;;10.12;94.11
44531;BME280;30240;47.418;0.700;2023-02-17T00:56:59;101623.3154296875;;;10.09;94.21
44531;BME280;30240;47.418;0.700;2023-02-17T00:59:24;101627.16674804688;;;10.09;94.26
44531;BME280;30240;47.418;0.700;2023-02-17T01:01:48;101627.16674804688;;;10.09;94.26
44531;BME280;30240;47.418;0.700;2023-02-17T01:04:13;101623.7548828125;;;10.03;94.49
44531;BME280;30240;47.418;0.700;2023-02-17T01:06:39;101621.9970703125;;;10.03;94.61
44531;BME280;30240;47.418;0.700;2023-02-17T01:09:07;101621.73461914062;;;9.97;94.72
44531;BME280;30240;47.418;0.700;2023-02-17T01:11:30;101619.68994140625;;;9.99;94.81
44531;BME280;30240;47.418;0.700;2023-02-17T01:13:54;101619.68994140625;;;9.99;94.81
44531;BME280;30240;47.418;0.700;2023-02-17T01:16:20;101627.685546875;;;9.97;94.96
44531;BME280;30240;47.418;0.700;2023-02-17T01:18:44;101623.13842773438;;;9.94;95.08
44531;BME280;30240;47.418;0.700;2023-02-17T01:21:14;101623.24829101562;;;9.94;95.18
44531;BME280;30240;47.418;0.700;2023-02-17T01:23:34;101626.58081054688;;;9.98;95.31
44531;BME280;30240;47.418;0.700;2023-02-17T01:25:58;101626.58081054688;;;9.98;95.31
44531;BME280;30240;47.418;0.700;2023-02-17T01:28:24;101625.0;;;9.94;95.37
44531;BME280;30240;47.418;0.700;2023-02-17T01:30:49;101624.53002929688;;;9.92;95.39
44531;BME280;30240;47.418;0.700;2023-02-17T01:33:14;101625.20141601562;;;9.92;95.48
44531;BME280;30240;47.418;0.700;2023-02-17T01:35:39;101618.93920898438;;;9.9;95.5
44531;BME280;30240;47.418;0.700;2023-02-17T01:38:04;101623.74877929688;;;9.87;95.57
44531;BME280;30240;47.418;0.700;2023-02-17T01:40:29;101623.74877929688;;;9.87;95.57
44531;BME280;30240;47.418;0.700;2023-02-17T01:42:54;101616.20483398438;;;9.84;95.6
44531;BME280;30240;47.418;0.700;2023-02-17T01:45:33;101607.11059570312;;;9.87;95.7
44531;BME280;30240;47.418;0.700;2023-02-17T01:47:45;101611.79809570312;;;9.88;95.73
44531;BME280;30240;47.418;0.700;2023-02-17T01:50:09;101605.50537109375;;;9.84;95.81
44531;BME280;30240;47.418;0.700;2023-02-17T01:52:34;101605.50537109375;;;9.84;95.81
44531;BME280;30240;47.418;0.700;2023-02-17T01:55:02;101610.70556640625;;;9.84;95.82
44531;BME280;30240;47.418;0.700;2023-02-17T01:57:26;101611.81030273438;;;9.84;95.77
44531;BME280;30240;47.418;0.700;2023-02-17T01:59:48;101610.09521484375;;;9.87;95.79
44531;BME280;30240;47.418;0.700;2023-02-17T02:02:14;101611.7431640625;;;9.9;95.83
44531;BME280;30240;47.418;0.700;2023-02-17T02:04:40;101611.7431640625;;;9.9;95.83
44531;BME280;30240;47.418;0.700;2023-02-17T02:07:05;101619.78759765625;;;9.88;95.84
44531;BME280;30240;47.418;0.700;2023-02-17T02:09:31;101604.63256835938;;;9.91;95.84
44531;BME280;30240;47.418;0.700;2023-02-17T02:11:53;101602.197265625;;;9.9;95.86
44531;BME280;30240;47.418;0.700;2023-02-17T02:14:19;101606.14013671875;;;9.95;95.91
44531;BME280;30240;47.418;0.700;2023-02-17T02:16:47;101606.14013671875;;;9.95;95.91
44531;BME280;30240;47.418;0.700;2023-02-17T02:16:52;101606.14013671875;;;9.95;95.91
44531;BME280;30240;47.418;0.700;2023-02-17T02:19:36;101604.1015625;;;9.92;95.87
44531;BME280;30240;47.418;0.700;2023-02-17T02:19:45;101604.1015625;;;9.92;95.87
44531;BME280;30240;47.418;0.700;2023-02-17T02:20:02;101604.1015625;;;9.92;95.87
44531;BME280;30240;47.418;0.700;2023-02-17T02:20:18;101604.1015625;;;9.92;95.87
44531;BME280;30240;47.418;0.700;2023-02-17T02:22:01;101602.71606445312;;;9.88;95.91
44531;BME280;30240;47.418;0.700;2023-02-17T02:22:10;101602.71606445312;;;9.88;95.91
44531;BME280;30240;47.418;0.700;2023-02-17T02:24:22;101602.15454101562;;;9.97;96.17
44531;BME280;30240;47.418;0.700;2023-02-17T02:26:37;101598.57177734375;;;9.95;95.98
44531;BME280;30240;47.418;0.700;2023-02-17T02:28:59;101598.57177734375;;;9.95;95.98
44531;BME280;30240;47.418;0.700;2023-02-17T02:29:10;101598.57177734375;;;9.95;95.98
44531;BME280;30240;47.418;0.700;2023-02-17T02:29:18;101598.57177734375;;;9.95;95.98
44531;BME280;30240;47.418;0.700;2023-02-17T02:29:26;101598.57177734375;;;9.95;95.98
44531;BME280;30240;47.418;0.700;2023-02-17T02:29:36;101598.57177734375;;;9.95;95.98
44531;BME280;30240;47.418;0.700;2023-02-17T02:31:32;101601.33056640625;;;9.95;95.94
44531;BME280;30240;47.418;0.700;2023-02-17T02:31:36;101601.33056640625;;;9.95;95.94
44531;BME280;30240;47.418;0.700;2023-02-17T02:33:42;101602.40478515625;;;9.91;95.98
44531;BME280;30240;47.418;0.700;2023-02-17T02:36:09;101602.23999023438;;;9.95;96.0
44531;BME280;30240;47.418;0.700;2023-02-17T02:38:33;101595.62377929688;;;9.99;95.99
44531;BME280;30240;47.418;0.700;2023-02-17T02:40:56;101595.62377929688;;;9.99;95.99
44531;BME280;30240;47.418;0.700;2023-02-17T02:43:19;101600.25634765625;;;9.99;95.99
44531;BME280;30240;47.418;0.700;2023-02-17T02:45:44;101593.32885742188;;;9.98;95.97
44531;BME280;30240;47.418;0.700;2023-02-17T02:48:08;101593.04809570312;;;9.99;96.06
44531;BME280;30240;47.418;0.700;2023-02-17T02:50:43;101591.40014648438;;;9.99;96.04
44531;BME280;30240;47.418;0.700;2023-02-17T02:50:57;101591.40014648438;;;9.99;96.04
44531;BME280;30240;47.418;0.700;2023-02-17T02:53:24;101591.40014648438;;;9.99;96.04
44531;BME280;30240;47.418;0.700;2023-02-17T02:53:33;101591.40014648438;;;9.99;96.04
44531;BME280;30240;47.418;0.700;2023-02-17T02:53:49;101591.40014648438;;;9.99;96.04
44531;BME280;30240;47.418;0.700;2023-02-17T02:53:57;101591.40014648438;;;9.99;96.04
44531;BME280;30240;47.418;0.700;2023-02-17T02:55:36;101584.033203125;;;10.03;96.03
44531;BME280;30240;47.418;0.700;2023-02-17T02:57:52;101588.78173828125;;;10.05;96.08
44531;BME280;30240;47.418;0.700;2023-02-17T03:00:17;101581.58569335938;;;10.02;96.03
44531;BME280;30240;47.418;0.700;2023-02-17T03:02:43;101576.54418945312;;;10.08;96.05
44531;BME280;30240;47.418;0.700;2023-02-17T03:05:08;101576.54418945312;;;10.08;96.05
44531;BME280;30240;47.418;0.700;2023-02-17T03:07:31;101578.53393554688;;;10.08;96.01
44531;BME280;30240;47.418;0.700;2023-02-17T03:09:55;101578.9794921875;;;10.1;96.05
44531;BME280;30240;47.418;0.700;2023-02-17T03:12:20;101577.71606445312;;;10.08;96.05
44531;BME280;30240;47.418;0.700;2023-02-17T03:14:45;101577.89306640625;;;10.06;96.05
44531;BME280;30240;47.418;0.700;2023-02-17T03:17:09;101579.93774414062;;;10.1;96.09
44531;BME280;30240;47.418;0.700;2023-02-17T03:19:34;101579.93774414062;;;10.1;96.09
44531;BME280;30240;47.418;0.700;2023-02-17T03:22:04;101585.06469726562;;;10.1;96.13
44531;BME280;30240;47.418;0.700;2023-02-17T03:24:24;101579.85229492188;;;10.12;96.16
44531;BME280;30240;47.418;0.700;2023-02-17T03:26:49;101577.81372070312;;;10.12;96.21
44531;BME280;30240;47.418;0.700;2023-02-17T03:29:13;101573.59619140625;;;10.12;96.19
44531;BME280;30240;47.418;0.700;2023-02-17T03:31:39;101573.59619140625;;;10.12;96.19
44531;BME280;30240;47.418;0.700;2023-02-17T03:34:04;101576.36108398438;;;10.09;96.41
44531;BME280;30240;47.418;0.700;2023-02-17T03:36:28;101576.03759765625;;;10.1;96.4
44531;BME280;30240;47.418;0.700;2023-02-17T03:38:54;101568.8720703125;;;10.13;96.24
44531;BME280;30240;47.418;0.700;2023-02-17T03:41:18;101574.70092773438;;;10.16;96.3
44531;BME280;30240;47.418;0.700;2023-02-17T03:43:43;101574.70092773438;;;10.16;96.3
44531;BME280;30240;47.418;0.700;2023-02-17T03:46:09;101570.81298828125;;;10.17;96.24
44531;BME280;30240;47.418;0.700;2023-02-17T03:48:33;101571.3134765625;;;10.13;96.31
44531;BME280;30240;47.418;0.700;2023-02-17T03:51:12;101571.15478515625;;;10.15;97.07
44531;BME280;30240;47.418;0.700;2023-02-17T03:53:23;101566.87622070312;;;10.15;96.54
44531;BME280;30240;47.418;0.700;2023-02-17T03:55:48;101566.87622070312;;;10.15;96.54
44531;BME280;30240;47.418;0.700;2023-02-17T03:58:14;101570.11108398438;;;10.16;96.32
44531;BME280;30240;47.418;0.700;2023-02-17T04:00:38;101574.18823242188;;;10.16;96.24
44531;BME280;30240;47.418;0.700;2023-02-17T04:03:03;101569.2626953125;;;10.17;96.27
44531;BME280;30240;47.418;0.700;2023-02-17T04:05:28;101575.45166015625;;;10.22;96.33
44531;BME280;30240;47.418;0.700;2023-02-17T04:07:53;101575.45166015625;;;10.22;96.33
44531;BME280;30240;47.418;0.700;2023-02-17T04:10:19;101578.23486328125;;;10.17;96.43
44531;BME280;30240;47.418;0.700;2023-02-17T04:12:43;101583.7646484375;;;10.19;96.37
44531;BME280;30240;47.418;0.700;2023-02-17T04:15:09;101580.27954101562;;;10.2;96.34
44531;BME280;30240;47.418;0.700;2023-02-17T04:17:34;101578.37524414062;;;10.25;96.5
44531;BME280;30240;47.418;0.700;2023-02-17T04:19:59;101578.37524414062;;;10.25;96.5
44531;BME280;30240;47.418;0.700;2023-02-17T04:22:23;101576.38549804688;;;10.19;96.43
44531;BME280;30240;47.418;0.700;2023-02-17T04:24:48;101572.74780273438;;;10.25;96.4
44531;BME280;30240;47.418;0.700;2023-02-17T04:27:13;101575.86059570312;;;10.26;96.39
44531;BME280;30240;47.418;0.700;2023-02-17T04:29:39;101586.279296875;;;10.25;96.4
44531;BME280;30240;47.418;0.700;2023-02-17T04:32:03;101586.279296875;;;10.25;96.4
44531;BME280;30240;47.418;0.700;2023-02-17T04:34:28;101584.716796875;;;10.26;96.39
44531;BME280;30240;47.418;0.700;2023-02-17T04:36:53;101584.716796875;;;10.28;96.39
44531;BME280;30240;47.418;0.700;2023-02-17T04:39:19;101578.173828125;;;10.28;96.45
44531;BME280;30240;47.418;0.700;2023-02-17T04:41:44;101582.34252929688;;;10.29;96.49
44531;BME280;30240;47.418;0.700;2023-02-17T04:44:08;101589.87426757812;;;10.29;96.45
44531;BME280;30240;47.418;0.700;2023-02-17T04:46:34;101589.87426757812;;;10.29;96.45
44531;BME280;30240;47.418;0.700;2023-02-17T04:48:59;101587.3779296875;;;10.28;96.5
44531;BME280;30240;47.418;0.700;2023-02-17T04:51:23;101589.2822265625;;;10.33;96.48
44531;BME280;30240;47.418;0.700;2023-02-17T04:53:48;101595.86181640625;;;10.32;96.47
44531;BME280;30240;47.418;0.700;2023-02-17T04:56:14;101597.24731445312;;;10.29;96.45
44531;BME280;30240;47.418;0.700;2023-02-17T04:58:39;101597.24731445312;;;10.29;96.45
44531;BME280;30240;47.418;0.700;2023-02-17T05:01:04;101601.06811523438;;;10.32;96.45
44531;BME280;30240;47.418;0.700;2023-02-17T05:03:28;101599.92065429688;;;10.3;96.45
44531;BME280;30240;47.418;0.700;2023-02-17T05:05:53;101609.00268554688;;;10.26;96.47
44531;BME280;30240;47.418;0.700;2023-02-17T05:08:18;101610.107421875;;;10.3;96.51
44531;BME280;30240;47.418;0.700;2023-02-17T05:10:43;101610.107421875;;;10.3;96.51
44531;BME280;30240;47.418;0.700;2023-02-17T05:13:09;101607.14111328125;;;10.3;96.47
44531;BME280;30240;47.418;0.700;2023-02-17T05:15:34;101603.0029296875;;;10.28;96.56
44531;BME280;30240;47.418;0.700;2023-02-17T05:17:58;101621.71630859375;;;10.26;96.5
44531;BME280;30240;47.418;0.700;2023-02-17T05:20:23;101605.35888671875;;;10.29;96.48
44531;BME280;30240;47.418;0.700;2023-02-17T05:22:48;101605.35888671875;;;10.29;96.48
44531;BME280;30240;47.418;0.700;2023-02-17T05:25:13;101609.70458984375;;;10.29;96.48
44531;BME280;30240;47.418;0.700;2023-02-17T05:27:38;101616.17431640625;;;10.3;96.51
44531;BME280;30240;47.418;0.700;2023-02-17T05:30:04;101614.75219726562;;;10.32;96.49
44531;BME280;30240;47.418;0.700;2023-02-17T05:32:28;101616.73583984375;;;10.32;96.53
44531;BME280;30240;47.418;0.700;2023-02-17T05:34:54;101616.73583984375;;;10.32;96.53
44531;BME280;30240;47.418;0.700;2023-02-17T05:37:19;101612.05444335938;;;10.32;96.54
44531;BME280;30240;47.418;0.700;2023-02-17T05:39:44;101621.044921875;;;10.3;96.52
44531;BME280;30240;47.418;0.700;2023-02-17T05:42:09;101613.58032226562;;;10.3;96.5
44531;BME280;30240;47.418;0.700;2023-02-17T05:44:33;101616.04614257812;;;10.33;96.53
44531;BME280;30240;47.418;0.700;2023-02-17T05:46:58;101616.04614257812;;;10.33;96.53
44531;BME280;30240;47.418;0.700;2023-02-17T05:49:23;101620.58715820312;;;10.3;96.57
44531;BME280;30240;47.418;0.700;2023-02-17T05:51:48;101630.126953125;;;10.3;96.56
44531;BME280;30240;47.418;0.700;2023-02-17T05:54:13;101624.57275390625;;;10.34;96.59
44531;BME280;30240;47.418;0.700;2023-02-17T05:56:38;101636.99340820312;;;10.32;96.61
44531;BME280;30240;47.418;0.700;2023-02-17T05:59:03;101636.99340820312;;;10.32;96.61
44531;BME280;30240;47.418;0.700;2023-02-17T06:01:29;101642.51708984375;;;10.34;96.6
44531;BME280;30240;47.418;0.700;2023-02-17T06:03:53;101642.0654296875;;;10.36;96.66
44531;BME280;30240;47.418;0.700;2023-02-17T06:06:19;101643.32275390625;;;10.36;96.66
44531;BME280;30240;47.418;0.700;2023-02-17T06:08:43;101647.18627929688;;;10.37;96.63
44531;BME280;30240;47.418;0.700;2023-02-17T06:11:08;101647.18627929688;;;10.37;96.63
44531;BME280;30240;47.418;0.700;2023-02-17T06:13:34;101646.45385742188;;;10.4;96.7
44531;BME280;30240;47.418;0.700;2023-02-17T06:15:58;101646.7041015625;;;10.4;96.82
44531;BME280;30240;47.418;0.700;2023-02-17T06:18:24;101646.23413085938;;;10.34;96.82
44531;BME280;30240;47.418;0.700;2023-02-17T06:20:49;101651.01318359375;;;10.37;96.8
44531;BME280;30240;47.418;0.700;2023-02-17T06:23:13;101652.13012695312;;;10.39;96.76
44531;BME280;30240;47.418;0.700;2023-02-17T06:25:38;101652.13012695312;;;10.39;96.76
44531;BME280;30240;47.418;0.700;2023-02-17T06:28:04;101650.439453125;;;10.39;96.85
44531;BME280;30240;47.418;0.700;2023-02-17T06:30:29;101647.998046875;;;10.41;96.85
44531;BME280;30240;47.418;0.700;2023-02-17T06:32:53;101651.59912109375;;;10.4;96.87
44531;BME280;30240;47.418;0.700;2023-02-17T06:35:18;101651.42211914062;;;10.39;96.93
44531;BME280;30240;47.418;0.700;2023-02-17T06:37:44;101651.42211914062;;;10.39;96.93
44531;BME280;30240;47.418;0.700;2023-02-17T06:40:09;101661.1328125;;;10.41;96.96
44531;BME280;30240;47.418;0.700;2023-02-17T06:42:34;101659.90600585938;;;10.43;96.93
44531;BME280;30240;47.418;0.700;2023-02-17T06:44:58;101665.00244140625;;;10.43;96.98
44531;BME280;30240;47.418;0.700;2023-02-17T06:47:23;101664.88037109375;;;10.46;96.97
44531;BME280;30240;47.418;0.700;2023-02-17T06:49:49;101664.88037109375;;;10.46;96.97
44531;BME280;30240;47.418;0.700;2023-02-17T06:52:13;101669.21997070312;;;10.44;97.01
44531;BME280;30240;47.418;0.700;2023-02-17T06:54:39;101678.125;;;10.46;97.05
44531;BME280;30240;47.418;0.700;2023-02-17T06:57:04;101673.5595703125;;;10.47;97.04
44531;BME280;30240;47.418;0.700;2023-02-17T06:59:30;101680.35888671875;;;10.49;97.03
44531;BME280;30240;47.418;0.700;2023-02-17T07:01:54;101680.35888671875;;;10.49;97.03
44531;BME280;30240;47.418;0.700;2023-02-17T07:04:19;101679.2236328125;;;10.46;97.03
44531;BME280;30240;47.418;0.700;2023-02-17T07:06:43;101685.7666015625;;;10.53;97.03
44531;BME280;30240;47.418;0.700;2023-02-17T07:09:09;101683.81958007812;;;10.54;97.04
44531;BME280;30240;47.418;0.700;2023-02-17T07:11:34;101690.78369140625;;;10.56;97.0
44531;BME280;30240;47.418;0.700;2023-02-17T07:13:59;101690.78369140625;;;10.56;97.0
44531;BME280;30240;47.418;0.700;2023-02-17T07:16:24;101694.34204101562;;;10.51;96.99
44531;BME280;30240;47.418;0.700;2023-02-17T07:18:49;101690.95458984375;;;10.56;96.99
44531;BME280;30240;47.418;0.700;2023-02-17T07:21:14;101698.57788085938;;;10.53;96.95
44531;BME280;30240;47.418;0.700;2023-02-17T07:23:39;101693.26782226562;;;10.57;96.93
44531;BME280;30240;47.418;0.700;2023-02-17T07:26:06;101693.26782226562;;;10.57;96.93
44531;BME280;30240;47.418;0.700;2023-02-17T07:28:29;101696.76513671875;;;10.56;96.94
44531;BME280;30240;47.418;0.700;2023-02-17T07:30:54;101702.71606445312;;;10.57;96.94
44531;BME280;30240;47.418;0.700;2023-02-17T07:33:19;101703.8818359375;;;10.63;96.92
44531;BME280;30240;47.418;0.700;2023-02-17T07:35:44;101709.14916992188;;;10.6;96.92
44531;BME280;30240;47.418;0.700;2023-02-17T07:38:09;101709.14916992188;;;10.6;96.92
44531;BME280;30240;47.418;0.700;2023-02-17T07:40:34;101711.92016601562;;;10.61;96.9
44531;BME280;30240;47.418;0.700;2023-02-17T07:42:59;101714.501953125;;;10.6;96.9
44531;BME280;30240;47.418;0.700;2023-02-17T07:45:24;101713.55590820312;;;10.67;96.89
44531;BME280;30240;47.418;0.700;2023-02-17T07:47:49;101720.263671875;;;10.61;96.88
44531;BME280;30240;47.418;0.700;2023-02-17T07:50:14;101719.25048828125;;;10.64;96.88
44531;BME280;30240;47.418;0.700;2023-02-17T07:52:39;101719.25048828125;;;10.64;96.88
44531;BME280;30240;47.418;0.700;2023-02-17T07:55:04;101715.14892578125;;;10.69;96.88
44531;BME280;30240;47.418;0.700;2023-02-17T07:57:29;101714.7216796875;;;10.68;96.87
44531;BME280;30240;47.418;0.700;2023-02-17T07:59:54;101719.07958984375;;;10.64;96.83
44531;BME280;30240;47.418;0.700;2023-02-17T08:02:19;101729.38842773438;;;10.71;96.83
44531;BME280;30240;47.418;0.700;2023-02-17T08:04:44;101729.38842773438;;;10.71;96.83
44531;BME280;30240;47.418;0.700;2023-02-17T08:07:09;101732.7880859375;;;10.74;96.8
44531;BME280;30240;47.418;0.700;2023-02-17T08:09:34;101730.99975585938;;;10.79;96.74
44531;BME280;30240;47.418;0.700;2023-02-17T08:11:59;101734.18579101562;;;10.86;96.76
44531;BME280;30240;47.418;0.700;2023-02-17T08:14:28;101733.7646484375;;;10.89;96.72
44531;BME280;30240;47.418;0.700;2023-02-17T08:16:49;101733.7646484375;;;10.89;96.72
44531;BME280;30240;47.418;0.700;2023-02-17T08:19:14;101738.1591796875;;;10.82;96.68
44531;BME280;30240;47.418;0.700;2023-02-17T08:21:40;101735.68725585938;;;11.0;96.66
44531;BME280;30240;47.418;0.700;2023-02-17T08:24:05;101740.68603515625;;;11.03;96.57
44531;BME280;30240;47.418;0.700;2023-02-17T08:26:29;101743.71337890625;;;11.08;96.57
44531;BME280;30240;47.418;0.700;2023-02-17T08:28:54;101743.71337890625;;;11.08;96.57
44531;BME280;30240;47.418;0.700;2023-02-17T08:31:21;101741.9189453125;;;11.0;96.49
44531;BME280;30240;47.418;0.700;2023-02-17T08:33:45;101744.9462890625;;;11.0;96.37
44531;BME280;30240;47.418;0.700;2023-02-17T08:36:11;101747.56469726562;;;11.09;96.3
44531;BME280;30240;47.418;0.700;2023-02-17T08:38:34;101743.32885742188;;;11.08;96.26
44531;BME280;30240;47.418;0.700;2023-02-17T08:40:59;101743.32885742188;;;11.08;96.26
44531;BME280;30240;47.418;0.700;2023-02-17T08:43:24;101744.189453125;;;11.12;96.16
44531;BME280;30240;47.418;0.700;2023-02-17T08:45:49;101743.78051757812;;;11.16;96.12
44531;BME280;30240;47.418;0.700;2023-02-17T08:48:14;101742.49877929688;;;11.15;96.09
44531;BME280;30240;47.418;0.700;2023-02-17T08:50:40;101748.66943359375;;;11.16;96.04
44531;BME280;30240;47.418;0.700;2023-02-17T08:53:05;101748.66943359375;;;11.16;96.04
44531;BME280;30240;47.418;0.700;2023-02-17T08:55:29;101750.28076171875;;;11.1;96.04
44531;BME280;30240;47.418;0.700;2023-02-17T08:57:54;101749.0234375;;;11.2;96.08
44531;BME280;30240;47.418;0.700;2023-02-17T09:00:19;101756.79931640625;;;11.27;96.04
44531;BME280;30240;47.418;0.700;2023-02-17T09:02:44;101758.43505859375;;;11.24;96.04
44531;BME280;30240;47.418;0.700;2023-02-17T09:05:09;101758.43505859375;;;11.24;96.04
44531;BME280;30240;47.418;0.700;2023-02-17T09:07:39;101756.3720703125;;;11.3;95.99
44531;BME280;30240;47.418;0.700;2023-02-17T09:09:59;101762.02392578125;;;11.37;95.94
44531;BME280;30240;47.418;0.700;2023-02-17T09:12:29;101765.14282226562;;;11.35;95.92
44531;BME280;30240;47.418;0.700;2023-02-17T09:14:53;101768.51806640625;;;11.3;95.84
44531;BME280;30240;47.418;0.700;2023-02-17T09:17:18;101764.9169921875;;;11.27;95.92
44531;BME280;30240;47.418;0.700;2023-02-17T09:19:43;101764.9169921875;;;11.27;95.92
44531;BME280;30240;47.418;0.700;2023-02-17T09:22:05;101768.38989257812;;;11.37;95.96
44531;BME280;30240;47.418;0.700;2023-02-17T09:24:29;101765.06958007812;;;11.38;95.97
44531;BME280;30240;47.418;0.700;2023-02-17T09:26:57;101766.93725585938;;;11.48;95.99
44531;BME280;30240;47.418;0.700;2023-02-17T09:29:21;101767.32788085938;;;11.34;95.95
44531;BME280;30240;47.418;0.700;2023-02-17T09:31:44;101767.32788085938;;;11.34;95.95
44531;BME280;30240;47.418;0.700;2023-02-17T09:34:09;101765.70434570312;;;11.42;95.97
44531;BME280;30240;47.418;0.700;2023-02-17T09:36:37;101775.89111328125;;;11.42;95.93
44531;BME280;30240;47.418;0.700;2023-02-17T09:38:59;101780.48706054688;;;11.48;95.94
44531;BME280;30240;47.418;0.700;2023-02-17T09:41:28;101788.28125;;;11.55;95.88
44531;BME280;30240;47.418;0.700;2023-02-17T09:43:49;101788.28125;;;11.55;95.88
44531;BME280;30240;47.418;0.700;2023-02-17T09:46:17;101786.75537109375;;;11.55;95.87
44531;BME280;30240;47.418;0.700;2023-02-17T09:48:39;101782.92846679688;;;11.64;95.84
44531;BME280;30240;47.418;0.700;2023-02-17T09:51:07;101788.39111328125;;;11.54;95.75
44531;BME280;30240;47.418;0.700;2023-02-17T09:53:31;101790.5029296875;;;11.58;95.82
44531;BME280;30240;47.418;0.700;2023-02-17T09:55:56;101790.5029296875;;;11.58;95.82
44531;BME280;30240;47.418;0.700;2023-02-17T09:58:21;101802.45971679688;;;11.65;95.85
44531;BME280;30240;47.418;0.700;2023-02-17T10:00:46;101804.150390625;;;11.69;95.96
44531;BME280;30240;47.418;0.700;2023-02-17T10:03:12;101799.169921875;;;11.72;95.81
44531;BME280;30240;47.418;0.700;2023-02-17T10:05:39;101790.54565429688;;;11.9;95.48
44531;BME280;30240;47.418;0.700;2023-02-17T10:08:02;101790.54565429688;;;11.9;95.48
44531;BME280;30240;47.418;0.700;2023-02-17T10:10:27;101794.76318359375;;;11.97;95.17
44531;BME280;30240;47.418;0.700;2023-02-17T10:12:51;101799.47509765625;;;12.0;95.0
44531;BME280;30240;47.418;0.700;2023-02-17T10:15:15;101802.71606445312;;;12.01;94.89
44531;BME280;30240;47.418;0.700;2023-02-17T10:17:43;101805.69458007812;;;11.99;94.85
44531;BME280;30240;47.418;0.700;2023-02-17T10:20:06;101805.69458007812;;;11.99;94.85
44531;BME280;30240;47.418;0.700;2023-02-17T10:22:30;101806.8115234375;;;12.18;94.66
44531;BME280;30240;47.418;0.700;2023-02-17T10:24:54;101808.251953125;;;12.27;94.4
44531;BME280;30240;47.418;0.700;2023-02-17T10:27:27;101809.60693359375;;;12.2;94.29
44531;BME280;30240;47.418;0.700;2023-02-17T10:29:49;101821.23413085938;;;12.13;94.47
44531;BME280;30240;47.418;0.700;2023-02-17T10:32:14;101821.23413085938;;;12.13;94.47
44531;BME280;30240;47.418;0.700;2023-02-17T10:32:20;101821.23413085938;;;12.13;94.47
44531;BME280;30240;47.418;0.700;2023-02-17T10:34:35;101818.6279296875;;;12.01;94.35
44531;BME280;30240;47.418;0.700;2023-02-17T10:37:00;101819.4091796875;;;12.21;94.4
44531;BME280;30240;47.418;0.700;2023-02-17T10:39:32;101820.64208984375;;;12.18;94.26
44531;BME280;30240;47.418;0.700;2023-02-17T10:41:50;101813.95263671875;;;12.16;94.11
44531;BME280;30240;47.418;0.700;2023-02-17T10:44:17;101813.95263671875;;;12.16;94.11
44531;BME280;30240;47.418;0.700;2023-02-17T10:46:40;101815.42358398438;;;12.24;93.96
44531;BME280;30240;47.418;0.700;2023-02-17T10:49:04;101818.17016601562;;;12.37;93.92